sensor_id;sensor_type;location;lat;lon;timestamp;temperature;humidity
17128;DHT22;8679;50.842;4.322;2023-12-20T00:00:26;6.90;99.90
17128;DHT22;8679;50.842;4.322;2023-12-20T00:02:51;7.00;99.90
17128;DHT22;8679;50.842;4.322;2023-12-20T00:05:17;6.90;99.90
17128;DHT22;8679;50.842;4.322;2023-12-20T00:07:43;6.80;99.90
17128;DHT22;8679;50.842;4.322;2023-12-20T00:10:09;6.80;99.90
17128;DHT22;8679;50.842;4.322;2023-12-20T00:12:34;6.80;99.90
17128;DHT22;8679;50.842;4.322;2023-12-20T00:15:00;6.70;99.90
17128;DHT22;8679;50.842;4.322;2023-12-20T00:17:26;6.70;99.90
17128;DHT22;8679;50.842;4.322;2023-12-20T00:19:51;6.70;99.90
17128;DHT22;8679;50.842;4.322;2023-12-20T00:22:17;6.70;99.90
17128;DHT22;8679;50.842;4.322;2023-12-20T00:24:43;6.70;99.90
17128;DHT22;8679;50.842;4.322;2023-12-20T00:27:08;6.70;99.90
17128;DHT22;8679;50.842;4.322;2023-12-20T00:29:34;6.60;99.90
17128;DHT22;8679;50.842;4.322;2023-12-20T00:32:00;6.60;99.90
17128;DHT22;8679;50.842;4.322;2023-12-20T00:34:25;6.50;99.90
17128;DHT22;8679;50.842;4.322;2023-12-20T00:36:51;6.60;99.90
17128;DHT22;8679;50.842;4.322;2023-12-20T00:39:16;6.50;99.90
17128;DHT22;8679;50.842;4.322;2023-12-20T00:41:42;6.50;99.90
17128;DHT22;8679;50.842;4.322;2023-12-20T00:44:08;6.40;99.90
17128;DHT22;8679;50.842;4.322;2023-12-20T00:46:34;6.40;99.90
17128;DHT22;8679;50.842;4.322;2023-12-20T00:48:59;6.40;99.90
17128;DHT22;8679;50.842;4.322;2023-12-20T00:51:25;6.40;99.90
17128;DHT22;8679;50.842;4.322;2023-12-20T00:53:51;6.40;99.90
17128;DHT22;8679;50.842;4.322;2023-12-20T00:56:20;6.30;99.90
17128;DHT22;8679;50.842;4.322;2023-12-20T00:58:46;6.40;99.90
17128;DHT22;8679;50.842;4.322;2023-12-20T01:01:11;6.40;99.90
17128;DHT22;8679;50.842;4.322;2023-12-20T01:03:38;6.30;99.90
17128;DHT22;8679;50.842;4.322;2023-12-20T01:06:04;6.20;99.90
17128;DHT22;8679;50.842;4.322;2023-12-20T01:08:30;6.30;99.90
17128;DHT22;8679;50.842;4.322;2023-12-20T01:10:56;6.30;99.90
17128;DHT22;8679;50.842;4.322;2023-12-20T01:13:22;6.30;99.90
17128;DHT22;8679;50.842;4.322;2023-12-20T01:15:48;6.30;99.90
17128;DHT22;8679;50.842;4.322;2023-12-20T01:18:14;6.30;99.90
17128;DHT22;8679;50.842;4.322;2023-12-20T01:20:40;6.40;99.90
17128;DHT22;8679;50.842;4.322;2023-12-20T01:23:06;6.30;99.90
17128;DHT22;8679;50.842;4.322;2023-12-20T01:25:31;6.20;99.90
17128;DHT22;8679;50.842;4.322;2023-12-20T01:27:57;6.20;99.90
17128;DHT22;8679;50.842;4.322;2023-12-20T01:30:23;6.20;99.90
17128;DHT22;8679;50.842;4.322;2023-12-20T01:32:48;6.20;99.90
17128;DHT22;8679;50.842;4.322;2023-12-20T01:35:14;6.10;99.90
17128;DHT22;8679;50.842;4.322;2023-12-20T01:37:40;6.10;99.90
17128;DHT22;8679;50.842;4.322;2023-12-20T01:40:06;6.10;99.90
17128;DHT22;8679;50.842;4.322;2023-12-20T01:42:32;6.10;99.90
17128;DHT22;8679;50.842;4.322;2023-12-20T01:44:57;6.10;99.90
17128;DHT22;8679;50.842;4.322;2023-12-20T01:47:23;6.20;99.90
17128;DHT22;8679;50.842;4.322;2023-12-20T01:49:49;6.10;99.90
17128;DHT22;8679;50.842;4.322;2023-12-20T01:52:16;6.10;99.90
17128;DHT22;8679;50.842;4.322;2023-12-20T01:54:42;6.10;99.90
17128;DHT22;8679;50.842;4.322;2023-12-20T01:57:09;6.00;99.90
17128;DHT22;8679;50.842;4.322;2023-12-20T01:59:35;6.10;99.90
17128;DHT22;8679;50.842;4.322;2023-12-20T02:02:02;6.00;99.90
17128;DHT22;8679;50.842;4.322;2023-12-20T02:04:29;6.10;99.90
17128;DHT22;8679;50.842;4.322;2023-12-20T02:06:56;6.20;99.90
17128;DHT22;8679;50.842;4.322;2023-12-20T02:09:22;6.00;99.90
17128;DHT22;8679;50.842;4.322;2023-12-20T02:11:49;6.10;99.90
17128;DHT22;8679;50.842;4.322;2023-12-20T02:14:14;6.00;99.90
17128;DHT22;8679;50.842;4.322;2023-12-20T02:16:40;6.10;99.90
17128;DHT22;8679;50.842;4.322;2023-12-20T02:19:13;6.00;99.90
17128;DHT22;8679;50.842;4.322;2023-12-20T02:21:39;6.00;99.90
17128;DHT22;8679;50.842;4.322;2023-12-20T02:24:04;5.90;99.90
17128;DHT22;8679;50.842;4.322;2023-12-20T02:26:32;6.00;99.90
17128;DHT22;8679;50.842;4.322;2023-12-20T02:28:59;6.00;99.90
17128;DHT22;8679;50.842;4.322;2023-12-20T02:31:24;6.00;99.90
17128;DHT22;8679;50.842;4.322;2023-12-20T02:33:50;6.00;99.90
17128;DHT22;8679;50.842;4.322;2023-12-20T02:36:16;6.00;99.90
17128;DHT22;8679;50.842;4.322;2023-12-20T02:38:42;6.10;99.90
17128;DHT22;8679;50.842;4.322;2023-12-20T02:41:07;6.00;99.90
17128;DHT22;8679;50.842;4.322;2023-12-20T02:43:33;6.00;99.90
17128;DHT22;8679;50.842;4.322;2023-12-20T02:45:59;6.00;99.90
17128;DHT22;8679;50.842;4.322;2023-12-20T02:48:24;6.00;99.90
17128;DHT22;8679;50.842;4.322;2023-12-20T02:50:50;6.10;99.90
17128;DHT22;8679;50.842;4.322;2023-12-20T02:53:16;6.30;99.90
17128;DHT22;8679;50.842;4.322;2023-12-20T02:55:42;6.10;99.90
17128;DHT22;8679;50.842;4.322;2023-12-20T02:58:08;6.10;99.90
17128;DHT22;8679;50.842;4.322;2023-12-20T03:00:33;6.10;99.90
17128;DHT22;8679;50.842;4.322;2023-12-20T03:02:59;6.10;99.90
17128;DHT22;8679;50.842;4.322;2023-12-20T03:05:25;6.20;99.90
17128;DHT22;8679;50.842;4.322;2023-12-20T03:07:51;6.20;99.90
17128;DHT22;8679;50.842;4.322;2023-12-20T03:10:18;6.10;99.90
17128;DHT22;8679;50.842;4.322;2023-12-20T03:12:44;6.10;99.90
17128;DHT22;8679;50.842;4.322;2023-12-20T03:15:10;6.20;99.90
17128;DHT22;8679;50.842;4.322;2023-12-20T03:17:36;6.20;99.90
17128;DHT22;8679;50.842;4.322;2023-12-20T03:20:02;6.30;99.90
17128;DHT22;8679;50.842;4.322;2023-12-20T03:22:28;6.20;99.90
17128;DHT22;8679;50.842;4.322;2023-12-20T03:24:54;6.30;99.90
17128;DHT22;8679;50.842;4.322;2023-12-20T03:27:19;6.30;99.90
17128;DHT22;8679;50.842;4.322;2023-12-20T03:29:45;6.30;99.90
17128;DHT22;8679;50.842;4.322;2023-12-20T03:32:11;6.30;99.90
17128;DHT22;8679;50.842;4.322;2023-12-20T03:34:36;6.30;99.90
17128;DHT22;8679;50.842;4.322;2023-12-20T03:37:02;6.30;99.90
17128;DHT22;8679;50.842;4.322;2023-12-20T03:39:28;6.30;99.90
17128;DHT22;8679;50.842;4.322;2023-12-20T03:41:53;6.30;99.90
17128;DHT22;8679;50.842;4.322;2023-12-20T03:44:19;6.30;99.90
17128;DHT22;8679;50.842;4.322;2023-12-20T03:46:45;6.40;99.90
17128;DHT22;8679;50.842;4.322;2023-12-20T03:49:11;6.20;99.90
17128;DHT22;8679;50.842;4.322;2023-12-20T03:51:37;6.30;99.90
17128;DHT22;8679;50.842;4.322;2023-12-20T03:54:03;6.30;99.90
17128;DHT22;8679;50.842;4.322;2023-12-20T03:56:28;6.30;99.90
17128;DHT22;8679;50.842;4.322;2023-12-20T03:58:54;6.20;99.90
17128;DHT22;8679;50.842;4.322;2023-12-20T04:01:20;6.30;99.90
17128;DHT22;8679;50.842;4.322;2023-12-20T04:03:45;6.30;99.90
17128;DHT22;8679;50.842;4.322;2023-12-20T04:06:17;6.30;99.90
17128;DHT22;8679;50.842;4.322;2023-12-20T04:08:43;6.30;99.90
17128;DHT22;8679;50.842;4.322;2023-12-20T04:11:08;6.30;99.90
17128;DHT22;8679;50.842;4.322;2023-12-20T04:13:34;6.40;99.90
17128;DHT22;8679;50.842;4.322;2023-12-20T04:15:59;6.20;99.90
17128;DHT22;8679;50.842;4.322;2023-12-20T04:18:25;6.30;99.90
17128;DHT22;8679;50.842;4.322;2023-12-20T04:20:51;6.20;99.90
17128;DHT22;8679;50.842;4.322;2023-12-20T04:23:17;6.30;99.90
17128;DHT22;8679;50.842;4.322;2023-12-20T04:25:42;6.30;99.90
17128;DHT22;8679;50.842;4.322;2023-12-20T04:28:08;6.40;99.90
17128;DHT22;8679;50.842;4.322;2023-12-20T04:30:34;6.30;99.90
17128;DHT22;8679;50.842;4.322;2023-12-20T04:33:00;6.30;99.90
17128;DHT22;8679;50.842;4.322;2023-12-20T04:35:26;6.30;99.90
17128;DHT22;8679;50.842;4.322;2023-12-20T04:37:51;6.30;99.90
17128;DHT22;8679;50.842;4.322;2023-12-20T04:40:17;6.30;99.90
17128;DHT22;8679;50.842;4.322;2023-12-20T04:42:43;6.20;99.90
17128;DHT22;8679;50.842;4.322;2023-12-20T04:45:09;6.30;99.90
17128;DHT22;8679;50.842;4.322;2023-12-20T04:47:35;6.30;99.90
17128;DHT22;8679;50.842;4.322;2023-12-20T04:50:00;6.30;99.90
17128;DHT22;8679;50.842;4.322;2023-12-20T04:52:27;6.40;99.90
17128;DHT22;8679;50.842;4.322;2023-12-20T04:54:53;6.20;99.90
17128;DHT22;8679;50.842;4.322;2023-12-20T04:57:19;6.30;99.90
17128;DHT22;8679;50.842;4.322;2023-12-20T04:59:44;6.30;99.90
17128;DHT22;8679;50.842;4.322;2023-12-20T05:02:10;6.30;99.90
17128;DHT22;8679;50.842;4.322;2023-12-20T05:04:35;6.30;99.90
17128;DHT22;8679;50.842;4.322;2023-12-20T05:07:01;6.30;99.90
17128;DHT22;8679;50.842;4.322;2023-12-20T05:09:27;6.30;99.90
17128;DHT22;8679;50.842;4.322;2023-12-20T05:11:52;6.20;99.90
17128;DHT22;8679;50.842;4.322;2023-12-20T05:14:18;6.20;99.90
17128;DHT22;8679;50.842;4.322;2023-12-20T05:16:44;6.20;99.90
17128;DHT22;8679;50.842;4.322;2023-12-20T05:19:09;6.20;99.90
17128;DHT22;8679;50.842;4.322;2023-12-20T05:21:35;6.20;99.90
17128;DHT22;8679;50.842;4.322;2023-12-20T05:24:01;6.20;99.90
17128;DHT22;8679;50.842;4.322;2023-12-20T05:26:26;6.10;99.90
17128;DHT22;8679;50.842;4.322;2023-12-20T05:28:52;6.10;99.90
17128;DHT22;8679;50.842;4.322;2023-12-20T05:31:18;6.00;99.90
17128;DHT22;8679;50.842;4.322;2023-12-20T05:33:44;6.00;99.90
17128;DHT22;8679;50.842;4.322;2023-12-20T05:36:09;5.90;99.90
17128;DHT22;8679;50.842;4.322;2023-12-20T05:38:37;5.80;99.90
17128;DHT22;8679;50.842;4.322;2023-12-20T05:41:02;5.90;99.90
17128;DHT22;8679;50.842;4.322;2023-12-20T05:43:29;5.90;99.90
17128;DHT22;8679;50.842;4.322;2023-12-20T05:45:54;5.90;99.90
17128;DHT22;8679;50.842;4.322;2023-12-20T05:48:20;5.80;99.90
17128;DHT22;8679;50.842;4.322;2023-12-20T05:50:46;5.70;99.90
17128;DHT22;8679;50.842;4.322;2023-12-20T05:53:12;5.70;99.90
17128;DHT22;8679;50.842;4.322;2023-12-20T05:55:37;5.70;99.90
17128;DHT22;8679;50.842;4.322;2023-12-20T05:58:03;5.70;99.90
17128;DHT22;8679;50.842;4.322;2023-12-20T06:00:30;5.70;99.90
17128;DHT22;8679;50.842;4.322;2023-12-20T06:02:56;5.60;99.90
17128;DHT22;8679;50.842;4.322;2023-12-20T06:05:22;5.60;99.90
17128;DHT22;8679;50.842;4.322;2023-12-20T06:07:47;5.70;99.90
17128;DHT22;8679;50.842;4.322;2023-12-20T06:10:15;5.60;99.90
17128;DHT22;8679;50.842;4.322;2023-12-20T06:12:41;5.60;99.90
17128;DHT22;8679;50.842;4.322;2023-12-20T06:15:07;5.60;99.90
17128;DHT22;8679;50.842;4.322;2023-12-20T06:17:33;5.60;99.90
17128;DHT22;8679;50.842;4.322;2023-12-20T06:20:00;5.60;99.90
17128;DHT22;8679;50.842;4.322;2023-12-20T06:22:26;5.60;99.90
17128;DHT22;8679;50.842;4.322;2023-12-20T06:24:52;5.60;99.90
17128;DHT22;8679;50.842;4.322;2023-12-20T06:27:17;5.70;99.90
17128;DHT22;8679;50.842;4.322;2023-12-20T06:29:43;5.70;99.90
17128;DHT22;8679;50.842;4.322;2023-12-20T06:32:10;5.70;99.90
17128;DHT22;8679;50.842;4.322;2023-12-20T06:34:36;5.70;99.90
17128;DHT22;8679;50.842;4.322;2023-12-20T06:37:01;5.70;99.90
17128;DHT22;8679;50.842;4.322;2023-12-20T06:39:27;5.70;99.90
17128;DHT22;8679;50.842;4.322;2023-12-20T06:41:53;5.70;99.90
17128;DHT22;8679;50.842;4.322;2023-12-20T06:44:19;5.50;99.90
17128;DHT22;8679;50.842;4.322;2023-12-20T06:46:44;5.60;99.90
17128;DHT22;8679;50.842;4.322;2023-12-20T06:49:10;5.70;99.90
17128;DHT22;8679;50.842;4.322;2023-12-20T06:51:36;5.60;99.90
17128;DHT22;8679;50.842;4.322;2023-12-20T06:54:02;5.60;99.90
17128;DHT22;8679;50.842;4.322;2023-12-20T06:56:28;5.60;99.90
17128;DHT22;8679;50.842;4.322;2023-12-20T06:58:54;5.50;99.90
17128;DHT22;8679;50.842;4.322;2023-12-20T07:01:20;5.40;99.90
17128;DHT22;8679;50.842;4.322;2023-12-20T07:03:46;5.40;99.90
17128;DHT22;8679;50.842;4.322;2023-12-20T07:06:12;5.50;99.90
17128;DHT22;8679;50.842;4.322;2023-12-20T07:08:40;5.40;99.90
17128;DHT22;8679;50.842;4.322;2023-12-20T07:11:05;5.40;99.90
17128;DHT22;8679;50.842;4.322;2023-12-20T07:13:31;5.40;99.90
17128;DHT22;8679;50.842;4.322;2023-12-20T07:15:57;5.40;99.90
17128;DHT22;8679;50.842;4.322;2023-12-20T07:18:22;5.40;99.90
17128;DHT22;8679;50.842;4.322;2023-12-20T07:20:48;5.30;99.90
17128;DHT22;8679;50.842;4.322;2023-12-20T07:23:14;5.30;99.90
17128;DHT22;8679;50.842;4.322;2023-12-20T07:25:39;5.20;99.90
17128;DHT22;8679;50.842;4.322;2023-12-20T07:28:05;5.20;99.90
17128;DHT22;8679;50.842;4.322;2023-12-20T07:30:31;5.30;99.90
17128;DHT22;8679;50.842;4.322;2023-12-20T07:32:57;5.20;99.90
17128;DHT22;8679;50.842;4.322;2023-12-20T07:35:23;5.20;99.90
17128;DHT22;8679;50.842;4.322;2023-12-20T07:37:49;5.10;99.90
17128;DHT22;8679;50.842;4.322;2023-12-20T07:40:15;5.10;99.90
17128;DHT22;8679;50.842;4.322;2023-12-20T07:42:42;5.10;99.90
17128;DHT22;8679;50.842;4.322;2023-12-20T07:45:08;5.10;99.90
17128;DHT22;8679;50.842;4.322;2023-12-20T07:47:36;5.10;99.90
17128;DHT22;8679;50.842;4.322;2023-12-20T07:50:02;5.00;99.90
17128;DHT22;8679;50.842;4.322;2023-12-20T07:52:28;5.10;99.90
17128;DHT22;8679;50.842;4.322;2023-12-20T07:54:54;5.20;99.90
17128;DHT22;8679;50.842;4.322;2023-12-20T07:57:21;5.20;99.90
17128;DHT22;8679;50.842;4.322;2023-12-20T07:59:47;5.10;99.90
17128;DHT22;8679;50.842;4.322;2023-12-20T08:02:14;5.10;99.90
17128;DHT22;8679;50.842;4.322;2023-12-20T08:04:40;5.10;99.90
17128;DHT22;8679;50.842;4.322;2023-12-20T08:07:07;5.20;99.90
17128;DHT22;8679;50.842;4.322;2023-12-20T08:09:32;5.10;99.90
17128;DHT22;8679;50.842;4.322;2023-12-20T08:11:59;5.10;99.90
17128;DHT22;8679;50.842;4.322;2023-12-20T08:14:25;5.20;99.90
17128;DHT22;8679;50.842;4.322;2023-12-20T08:16:51;5.20;99.90
17128;DHT22;8679;50.842;4.322;2023-12-20T08:19:16;5.20;99.90
17128;DHT22;8679;50.842;4.322;2023-12-20T08:21:42;5.20;99.90
17128;DHT22;8679;50.842;4.322;2023-12-20T08:24:08;5.20;99.90
17128;DHT22;8679;50.842;4.322;2023-12-20T08:26:34;5.30;99.90
17128;DHT22;8679;50.842;4.322;2023-12-20T08:28:59;5.40;99.90
17128;DHT22;8679;50.842;4.322;2023-12-20T08:31:25;5.20;99.90
17128;DHT22;8679;50.842;4.322;2023-12-20T08:33:51;5.40;99.90
17128;DHT22;8679;50.842;4.322;2023-12-20T08:36:19;5.40;99.90
17128;DHT22;8679;50.842;4.322;2023-12-20T08:38:46;5.40;99.90
17128;DHT22;8679;50.842;4.322;2023-12-20T08:41:12;5.50;99.90
17128;DHT22;8679;50.842;4.322;2023-12-20T08:43:38;5.50;99.90
17128;DHT22;8679;50.842;4.322;2023-12-20T08:46:06;5.50;99.90
17128;DHT22;8679;50.842;4.322;2023-12-20T08:48:31;5.50;99.90
17128;DHT22;8679;50.842;4.322;2023-12-20T08:50:57;5.50;99.90
17128;DHT22;8679;50.842;4.322;2023-12-20T08:53:23;5.50;99.90
17128;DHT22;8679;50.842;4.322;2023-12-20T08:55:49;5.60;99.90
17128;DHT22;8679;50.842;4.322;2023-12-20T08:58:14;5.60;99.90
17128;DHT22;8679;50.842;4.322;2023-12-20T09:00:41;5.70;99.90
17128;DHT22;8679;50.842;4.322;2023-12-20T09:03:07;5.70;99.90
17128;DHT22;8679;50.842;4.322;2023-12-20T09:05:33;5.70;99.90
17128;DHT22;8679;50.842;4.322;2023-12-20T09:07:59;5.70;99.90
17128;DHT22;8679;50.842;4.322;2023-12-20T09:10:26;5.70;99.90
17128;DHT22;8679;50.842;4.322;2023-12-20T09:12:52;5.80;99.90
17128;DHT22;8679;50.842;4.322;2023-12-20T09:15:26;5.90;99.90
17128;DHT22;8679;50.842;4.322;2023-12-20T09:17:53;5.90;99.90
17128;DHT22;8679;50.842;4.322;2023-12-20T09:20:19;5.90;99.90
17128;DHT22;8679;50.842;4.322;2023-12-20T09:22:45;6.00;99.90
17128;DHT22;8679;50.842;4.322;2023-12-20T09:25:11;6.10;99.90
17128;DHT22;8679;50.842;4.322;2023-12-20T09:27:38;6.10;99.90
17128;DHT22;8679;50.842;4.322;2023-12-20T09:30:04;6.20;99.90
17128;DHT22;8679;50.842;4.322;2023-12-20T09:32:31;6.20;99.90
17128;DHT22;8679;50.842;4.322;2023-12-20T09:34:57;6.20;99.90
17128;DHT22;8679;50.842;4.322;2023-12-20T09:37:26;6.20;99.90
17128;DHT22;8679;50.842;4.322;2023-12-20T09:39:51;6.30;99.90
17128;DHT22;8679;50.842;4.322;2023-12-20T09:42:24;6.30;99.90
17128;DHT22;8679;50.842;4.322;2023-12-20T09:44:50;6.40;99.90
17128;DHT22;8679;50.842;4.322;2023-12-20T09:47:16;6.40;99.90
17128;DHT22;8679;50.842;4.322;2023-12-20T09:49:44;6.40;99.90
17128;DHT22;8679;50.842;4.322;2023-12-20T09:52:11;6.50;99.90
17128;DHT22;8679;50.842;4.322;2023-12-20T09:54:38;6.60;99.90
17128;DHT22;8679;50.842;4.322;2023-12-20T09:57:04;6.70;99.90
17128;DHT22;8679;50.842;4.322;2023-12-20T09:59:30;6.70;99.90
17128;DHT22;8679;50.842;4.322;2023-12-20T10:01:56;6.90;99.90
17128;DHT22;8679;50.842;4.322;2023-12-20T10:04:22;6.80;99.90
17128;DHT22;8679;50.842;4.322;2023-12-20T10:06:50;6.90;99.90
17128;DHT22;8679;50.842;4.322;2023-12-20T10:09:18;6.90;99.90
17128;DHT22;8679;50.842;4.322;2023-12-20T10:11:44;6.90;99.90
17128;DHT22;8679;50.842;4.322;2023-12-20T10:14:10;6.80;99.90
17128;DHT22;8679;50.842;4.322;2023-12-20T10:16:36;6.90;99.90
17128;DHT22;8679;50.842;4.322;2023-12-20T10:19:02;6.90;99.90
17128;DHT22;8679;50.842;4.322;2023-12-20T10:21:28;6.90;99.90
17128;DHT22;8679;50.842;4.322;2023-12-20T10:23:54;7.00;99.90
17128;DHT22;8679;50.842;4.322;2023-12-20T10:26:24;7.20;99.90
17128;DHT22;8679;50.842;4.322;2023-12-20T10:28:53;7.20;99.90
17128;DHT22;8679;50.842;4.322;2023-12-20T10:31:34;7.30;99.90
17128;DHT22;8679;50.842;4.322;2023-12-20T10:34:01;7.40;99.90
17128;DHT22;8679;50.842;4.322;2023-12-20T10:36:30;7.50;99.90
17128;DHT22;8679;50.842;4.322;2023-12-20T10:38:56;7.50;99.90
17128;DHT22;8679;50.842;4.322;2023-12-20T10:41:28;7.60;99.90
17128;DHT22;8679;50.842;4.322;2023-12-20T10:43:59;7.60;99.90
17128;DHT22;8679;50.842;4.322;2023-12-20T10:46:29;7.80;99.90
17128;DHT22;8679;50.842;4.322;2023-12-20T10:48:56;7.70;99.90
17128;DHT22;8679;50.842;4.322;2023-12-20T10:51:23;7.80;99.90
17128;DHT22;8679;50.842;4.322;2023-12-20T10:53:50;7.80;99.90
17128;DHT22;8679;50.842;4.322;2023-12-20T10:56:19;7.80;99.90
17128;DHT22;8679;50.842;4.322;2023-12-20T10:58:45;7.80;99.90
17128;DHT22;8679;50.842;4.322;2023-12-20T11:01:17;7.80;99.90
17128;DHT22;8679;50.842;4.322;2023-12-20T11:03:53;7.90;99.90
17128;DHT22;8679;50.842;4.322;2023-12-20T11:09:40;7.90;99.90
17128;DHT22;8679;50.842;4.322;2023-12-20T11:17:13;7.90;99.90
17128;DHT22;8679;50.842;4.322;2023-12-20T11:22:29;8.00;99.90
17128;DHT22;8679;50.842;4.322;2023-12-20T11:24:58;8.00;99.90
17128;DHT22;8679;50.842;4.322;2023-12-20T11:27:24;8.00;99.90
17128;DHT22;8679;50.842;4.322;2023-12-20T11:29:55;8.00;99.90
17128;DHT22;8679;50.842;4.322;2023-12-20T11:34:51;8.00;99.90
17128;DHT22;8679;50.842;4.322;2023-12-20T11:37:19;8.00;99.90
17128;DHT22;8679;50.842;4.322;2023-12-20T11:39:45;8.10;99.90
17128;DHT22;8679;50.842;4.322;2023-12-20T11:42:19;8.00;99.90
17128;DHT22;8679;50.842;4.322;2023-12-20T11:44:46;8.10;99.90
17128;DHT22;8679;50.842;4.322;2023-12-20T11:47:13;8.10;99.90
17128;DHT22;8679;50.842;4.322;2023-12-20T11:49:39;8.10;99.90
17128;DHT22;8679;50.842;4.322;2023-12-20T11:52:05;8.20;99.90
17128;DHT22;8679;50.842;4.322;2023-12-20T11:54:31;8.20;99.90
17128;DHT22;8679;50.842;4.322;2023-12-20T11:56:57;8.30;99.90
17128;DHT22;8679;50.842;4.322;2023-12-20T11:59:23;8.40;99.90
17128;DHT22;8679;50.842;4.322;2023-12-20T12:01:50;8.40;99.90
17128;DHT22;8679;50.842;4.322;2023-12-20T12:04:16;8.40;99.90
17128;DHT22;8679;50.842;4.322;2023-12-20T12:06:44;8.50;99.90
17128;DHT22;8679;50.842;4.322;2023-12-20T12:09:10;8.50;99.90
17128;DHT22;8679;50.842;4.322;2023-12-20T12:11:36;8.40;99.90
17128;DHT22;8679;50.842;4.322;2023-12-20T12:14:01;8.60;99.90
17128;DHT22;8679;50.842;4.322;2023-12-20T12:16:27;8.60;99.90
17128;DHT22;8679;50.842;4.322;2023-12-20T12:18:59;8.60;99.90
17128;DHT22;8679;50.842;4.322;2023-12-20T12:21:26;8.70;99.90
17128;DHT22;8679;50.842;4.322;2023-12-20T12:23:51;8.70;99.90
17128;DHT22;8679;50.842;4.322;2023-12-20T12:26:18;8.70;99.90
17128;DHT22;8679;50.842;4.322;2023-12-20T12:28:44;8.80;99.90
17128;DHT22;8679;50.842;4.322;2023-12-20T12:31:14;8.70;99.90
17128;DHT22;8679;50.842;4.322;2023-12-20T12:33:43;8.70;99.90
17128;DHT22;8679;50.842;4.322;2023-12-20T12:36:10;8.70;99.90
17128;DHT22;8679;50.842;4.322;2023-12-20T12:38:37;8.70;99.90
17128;DHT22;8679;50.842;4.322;2023-12-20T12:41:02;8.80;99.90
17128;DHT22;8679;50.842;4.322;2023-12-20T12:43:28;8.70;99.90
17128;DHT22;8679;50.842;4.322;2023-12-20T12:45:54;8.70;99.90
17128;DHT22;8679;50.842;4.322;2023-12-20T12:48:20;8.80;99.90
17128;DHT22;8679;50.842;4.322;2023-12-20T12:50:46;8.70;99.90
17128;DHT22;8679;50.842;4.322;2023-12-20T12:53:13;8.70;99.90
17128;DHT22;8679;50.842;4.322;2023-12-20T12:55:41;8.70;99.90
17128;DHT22;8679;50.842;4.322;2023-12-20T12:58:06;8.70;99.90
17128;DHT22;8679;50.842;4.322;2023-12-20T13:00:33;8.80;99.90
17128;DHT22;8679;50.842;4.322;2023-12-20T13:03:00;8.80;99.90
17128;DHT22;8679;50.842;4.322;2023-12-20T13:05:25;8.80;99.90
17128;DHT22;8679;50.842;4.322;2023-12-20T13:07:51;8.80;99.90
17128;DHT22;8679;50.842;4.322;2023-12-20T13:10:17;8.80;99.90
17128;DHT22;8679;50.842;4.322;2023-12-20T13:12:43;8.80;99.90
17128;DHT22;8679;50.842;4.322;2023-12-20T13:15:09;8.80;99.90
17128;DHT22;8679;50.842;4.322;2023-12-20T13:17:34;8.80;99.90
17128;DHT22;8679;50.842;4.322;2023-12-20T13:20:00;8.90;99.90
17128;DHT22;8679;50.842;4.322;2023-12-20T13:22:26;8.90;99.90
17128;DHT22;8679;50.842;4.322;2023-12-20T13:24:52;9.00;99.90
17128;DHT22;8679;50.842;4.322;2023-12-20T13:27:17;9.00;99.90
17128;DHT22;8679;50.842;4.322;2023-12-20T13:29:43;9.00;99.90
17128;DHT22;8679;50.842;4.322;2023-12-20T13:32:09;9.10;99.90
17128;DHT22;8679;50.842;4.322;2023-12-20T13:34:35;9.10;99.90
17128;DHT22;8679;50.842;4.322;2023-12-20T13:37:01;9.10;99.90
17128;DHT22;8679;50.842;4.322;2023-12-20T13:39:26;9.20;99.90
17128;DHT22;8679;50.842;4.322;2023-12-20T13:41:52;9.20;99.90
17128;DHT22;8679;50.842;4.322;2023-12-20T13:44:18;9.20;99.90
17128;DHT22;8679;50.842;4.322;2023-12-20T13:46:44;9.20;99.90
17128;DHT22;8679;50.842;4.322;2023-12-20T13:49:11;9.20;99.90
17128;DHT22;8679;50.842;4.322;2023-12-20T13:51:37;9.20;99.90
17128;DHT22;8679;50.842;4.322;2023-12-20T13:54:04;9.30;99.90
17128;DHT22;8679;50.842;4.322;2023-12-20T13:56:30;9.30;99.90
17128;DHT22;8679;50.842;4.322;2023-12-20T13:58:56;9.30;99.90
17128;DHT22;8679;50.842;4.322;2023-12-20T14:01:23;9.30;99.90
17128;DHT22;8679;50.842;4.322;2023-12-20T14:03:48;9.40;99.90
17128;DHT22;8679;50.842;4.322;2023-12-20T14:06:15;9.40;99.90
17128;DHT22;8679;50.842;4.322;2023-12-20T14:08:42;9.40;99.90
17128;DHT22;8679;50.842;4.322;2023-12-20T14:11:08;9.40;99.90
17128;DHT22;8679;50.842;4.322;2023-12-20T14:13:33;9.40;99.90
17128;DHT22;8679;50.842;4.322;2023-12-20T14:15:59;9.40;99.90
17128;DHT22;8679;50.842;4.322;2023-12-20T14:18:26;9.40;99.90
17128;DHT22;8679;50.842;4.322;2023-12-20T14:20:52;9.40;99.90
17128;DHT22;8679;50.842;4.322;2023-12-20T14:23:19;9.40;99.90
17128;DHT22;8679;50.842;4.322;2023-12-20T14:25:45;9.40;99.90
17128;DHT22;8679;50.842;4.322;2023-12-20T14:28:10;9.40;99.90
17128;DHT22;8679;50.842;4.322;2023-12-20T14:30:39;9.40;99.90
17128;DHT22;8679;50.842;4.322;2023-12-20T14:33:05;9.40;99.90
17128;DHT22;8679;50.842;4.322;2023-12-20T14:35:31;9.40;99.90
17128;DHT22;8679;50.842;4.322;2023-12-20T14:37:56;9.40;99.90
17128;DHT22;8679;50.842;4.322;2023-12-20T14:40:22;9.40;99.90
17128;DHT22;8679;50.842;4.322;2023-12-20T14:42:49;9.40;99.90
17128;DHT22;8679;50.842;4.322;2023-12-20T14:45:16;9.40;99.90
17128;DHT22;8679;50.842;4.322;2023-12-20T14:47:43;9.40;99.90
17128;DHT22;8679;50.842;4.322;2023-12-20T14:50:09;9.40;99.90
17128;DHT22;8679;50.842;4.322;2023-12-20T14:52:36;9.40;99.90
17128;DHT22;8679;50.842;4.322;2023-12-20T14:55:02;9.40;99.90
17128;DHT22;8679;50.842;4.322;2023-12-20T14:57:28;9.40;99.90
17128;DHT22;8679;50.842;4.322;2023-12-20T14:59:55;9.40;99.90
17128;DHT22;8679;50.842;4.322;2023-12-20T15:02:21;9.40;99.90
17128;DHT22;8679;50.842;4.322;2023-12-20T15:04:47;9.40;99.90
17128;DHT22;8679;50.842;4.322;2023-12-20T15:07:13;9.50;99.90
17128;DHT22;8679;50.842;4.322;2023-12-20T15:09:38;9.50;99.90
17128;DHT22;8679;50.842;4.322;2023-12-20T15:12:04;9.50;99.90
17128;DHT22;8679;50.842;4.322;2023-12-20T15:14:30;9.50;99.90
17128;DHT22;8679;50.842;4.322;2023-12-20T15:16:56;9.50;99.90
17128;DHT22;8679;50.842;4.322;2023-12-20T15:19:22;9.50;99.90
17128;DHT22;8679;50.842;4.322;2023-12-20T15:21:48;9.40;99.90
17128;DHT22;8679;50.842;4.322;2023-12-20T15:24:14;9.40;99.90
17128;DHT22;8679;50.842;4.322;2023-12-20T15:26:46;9.50;99.90
17128;DHT22;8679;50.842;4.322;2023-12-20T15:29:12;9.50;99.90
17128;DHT22;8679;50.842;4.322;2023-12-20T15:31:46;9.50;99.90
17128;DHT22;8679;50.842;4.322;2023-12-20T15:34:12;9.50;99.90
17128;DHT22;8679;50.842;4.322;2023-12-20T15:36:38;9.50;99.90
17128;DHT22;8679;50.842;4.322;2023-12-20T15:39:05;9.50;99.90
17128;DHT22;8679;50.842;4.322;2023-12-20T15:41:31;9.50;99.90
17128;DHT22;8679;50.842;4.322;2023-12-20T15:43:57;9.50;99.90
17128;DHT22;8679;50.842;4.322;2023-12-20T15:46:23;9.50;99.90
17128;DHT22;8679;50.842;4.322;2023-12-20T15:48:48;9.50;99.90
17128;DHT22;8679;50.842;4.322;2023-12-20T15:51:14;9.50;99.90
17128;DHT22;8679;50.842;4.322;2023-12-20T15:53:40;9.50;99.90
17128;DHT22;8679;50.842;4.322;2023-12-20T15:56:08;9.50;99.90
17128;DHT22;8679;50.842;4.322;2023-12-20T15:58:34;9.50;99.90
17128;DHT22;8679;50.842;4.322;2023-12-20T16:00:59;9.50;99.90
17128;DHT22;8679;50.842;4.322;2023-12-20T16:03:25;9.50;99.90
17128;DHT22;8679;50.842;4.322;2023-12-20T16:05:52;9.50;99.90
17128;DHT22;8679;50.842;4.322;2023-12-20T16:08:19;9.50;99.90